SCX3044 KBNA-KLAL
Flight info
| Callsign | SCX3044 |
|---|---|
| Flight time | N/A |
| Altitude | 41000 |
| Route | TIPPN4 DENST HONID MAATY5 |
| Aircraft | B738/M-VGDW/C |
Departure
| Time | 2026-05-03 22:04 |
|---|---|
| Airport | Nashville International Airport (KBNA) |
Arrival
| Time | N/A |
|---|---|
| Airport | Lakeland Linder International Airport (KLAL) |
| Time | Latitude | Longitude | Altitude | Speed | Heading |
|---|---|---|---|---|---|
| 2026-05-03 21:45 | 36.12128 | -86.68869 | 586 ft | 0 kts | 287° |
| 2026-05-03 21:55 | 36.12124 | -86.68856 | 585 ft | 2 kts | 287° |
| 2026-05-03 21:55 | 36.12119 | -86.68836 | 583 ft | 2 kts | 288° |
| 2026-05-03 21:55 | 36.12114 | -86.68817 | 581 ft | 2 kts | 292° |
| 2026-05-03 21:55 | 36.12106 | -86.68799 | 580 ft | 2 kts | 347° |
| 2026-05-03 21:56 | 36.12098 | -86.68799 | 580 ft | 0 kts | 17° |
| 2026-05-03 21:58 | 36.12102 | -86.68798 | 580 ft | 4 kts | 16° |
| 2026-05-03 21:58 | 36.12161 | -86.68775 | 580 ft | 11 kts | 16° |
| 2026-05-03 21:58 | 36.12224 | -86.68726 | 577 ft | 12 kts | 70° |
| 2026-05-03 21:58 | 36.12254 | -86.68620 | 571 ft | 15 kts | 26° |
| 2026-05-03 21:59 | 36.12352 | -86.68577 | 571 ft | 15 kts | 15° |
| 2026-05-03 21:59 | 36.12442 | -86.68546 | 574 ft | 13 kts | 17° |
| 2026-05-03 21:59 | 36.12524 | -86.68514 | 573 ft | 12 kts | 17° |
| 2026-05-03 21:59 | 36.12607 | -86.68480 | 577 ft | 13 kts | 18° |
| 2026-05-03 22:00 | 36.12689 | -86.68447 | 576 ft | 12 kts | 17° |
| 2026-05-03 22:00 | 36.12769 | -86.68418 | 580 ft | 12 kts | 18° |
| 2026-05-03 22:00 | 36.12848 | -86.68386 | 576 ft | 13 kts | 18° |
| 2026-05-03 22:00 | 36.12938 | -86.68350 | 583 ft | 16 kts | 17° |
| 2026-05-03 22:01 | 36.13060 | -86.68302 | 579 ft | 19 kts | 18° |
| 2026-05-03 22:01 | 36.13191 | -86.68252 | 578 ft | 19 kts | 14° |
| 2026-05-03 22:01 | 36.13316 | -86.68202 | 575 ft | 19 kts | 19° |
| 2026-05-03 22:01 | 36.13440 | -86.68158 | 576 ft | 18 kts | 17° |
| 2026-05-03 22:02 | 36.13558 | -86.68110 | 575 ft | 18 kts | 19° |
| 2026-05-03 22:02 | 36.13669 | -86.68052 | 577 ft | 17 kts | 25° |
| 2026-05-03 22:02 | 36.13772 | -86.67997 | 575 ft | 8 kts | 31° |
| 2026-05-03 22:02 | 36.13793 | -86.67968 | 575 ft | 3 kts | 69° |
| 2026-05-03 22:03 | 36.13794 | -86.67940 | 576 ft | 3 kts | 97° |
| 2026-05-03 22:03 | 36.13783 | -86.67895 | 580 ft | 9 kts | 122° |
| 2026-05-03 22:03 | 36.13726 | -86.67879 | 578 ft | 10 kts | 197° |
| 2026-05-03 22:03 | 36.13457 | -86.67987 | 575 ft | 86 kts | 198° |
| 2026-05-03 22:04 | 36.12589 | -86.68333 | 591 ft | 172 kts | 196° |
| 2026-05-03 22:04 | 36.11350 | -86.68696 | 1629 ft | 182 kts | 192° |
| 2026-05-03 22:04 | 36.10109 | -86.68882 | 3114 ft | 173 kts | 190° |
| 2026-05-03 22:04 | 36.09003 | -86.69029 | 4519 ft | 155 kts | 189° |
| 2026-05-03 22:05 | 36.07823 | -86.69238 | 4963 ft | 188 kts | 194° |